Forside
METAR-TAF:

METAR-TAF

Lufthavne :

Teheran, Iran

Breddekreds: 35-41N, længdekreds: 051-21E, højde: 1204 m

Aktuelle vejr

Denne rapport blev lavet for 10 minutter siden, kl. 17:00 UTC
Vind 4 kt fra nordnordøst
Temperatur 33°C
Fugtighed 17%
Tryk 1012 hPa
Sigt 10 km eller mere
ingen skyer under 1500m og ingen cumulonimbus

METAR: OIII 251700Z 02004KT CAVOK 33/05 Q1011 A2987 NOSIG

Tid: 21:40 (17:10 UTC)

Vejrudsigter

Denne rapport blev lavet for 5 timer og 55 minutter siden, kl. 11:15 UTC
Foreløbig gælder fra 25 på 12 UTC til 26 på 18 UTC
Vind 6 kt fra østnordøst
Sigt: 8000 m
Nogle få skyer i en højde af 4000 ft
Midlertidig
fra 25 på 12 UTC til 25 på 15 UTC
Vind 16 kt fra syd
Midlertidig
fra 26 på 06 UTC til 26 på 15 UTC
Vind 16 kt fra sydsydøst

TAF: OIII 251115Z 2512/2618 07003MPS 8000 FEW040 TEMPO 2512/2515 18008MPS TEMPO 2606/2615 16008MPS

Vejrobservationer og prognoser fra mere end 4000 lufthavne (METAR og TAF).

De gule og røde prikker repræsenterer de meteorologiske stationer.

Flyt musen over at se navnet på stationen.

Så klik over at se vejr observationer og prognoser.

At skifte det kort: Klik på de grønne knapper med et sort kors for at zoome ind; på den grønne knap med en bindestreg for at zoome ud; eller på de grønne pile for tilstødende kort.


METAR-TAF: